sensor_id;sensor_type;location;lat;lon;timestamp;temperature;humidity
49855;DHT22;35752;52.164;21.244;2022-10-26T00:00:42;11.70;99.90
49855;DHT22;35752;52.164;21.244;2022-10-26T00:03:08;11.70;99.90
49855;DHT22;35752;52.164;21.244;2022-10-26T00:05:33;11.80;99.90
49855;DHT22;35752;52.164;21.244;2022-10-26T00:07:59;11.90;99.90
49855;DHT22;35752;52.164;21.244;2022-10-26T00:10:25;11.90;99.90
49855;DHT22;35752;52.164;21.244;2022-10-26T00:12:51;12.00;99.90
49855;DHT22;35752;52.164;21.244;2022-10-26T00:15:17;12.00;99.90
49855;DHT22;35752;52.164;21.244;2022-10-26T00:17:42;12.10;99.90
49855;DHT22;35752;52.164;21.244;2022-10-26T00:20:08;12.20;99.90
49855;DHT22;35752;52.164;21.244;2022-10-26T00:22:34;12.10;99.90
49855;DHT22;35752;52.164;21.244;2022-10-26T00:24:59;12.20;99.90
49855;DHT22;35752;52.164;21.244;2022-10-26T00:27:25;12.10;99.90
49855;DHT22;35752;52.164;21.244;2022-10-26T00:29:50;12.20;99.90
49855;DHT22;35752;52.164;21.244;2022-10-26T00:32:16;12.20;99.90
49855;DHT22;35752;52.164;21.244;2022-10-26T00:34:41;12.30;99.90
49855;DHT22;35752;52.164;21.244;2022-10-26T00:37:07;12.30;99.90
49855;DHT22;35752;52.164;21.244;2022-10-26T00:39:32;12.30;99.90
49855;DHT22;35752;52.164;21.244;2022-10-26T00:41:58;12.30;99.90
49855;DHT22;35752;52.164;21.244;2022-10-26T00:47:11;12.30;99.90
49855;DHT22;35752;52.164;21.244;2022-10-26T00:49:38;12.30;99.90
49855;DHT22;35752;52.164;21.244;2022-10-26T00:52:04;12.40;99.90
49855;DHT22;35752;52.164;21.244;2022-10-26T00:54:31;12.30;99.90
49855;DHT22;35752;52.164;21.244;2022-10-26T00:56:57;12.40;99.90
49855;DHT22;35752;52.164;21.244;2022-10-26T00:59:22;12.40;99.90
49855;DHT22;35752;52.164;21.244;2022-10-26T01:01:48;12.40;99.90
49855;DHT22;35752;52.164;21.244;2022-10-26T01:04:15;12.50;99.90
49855;DHT22;35752;52.164;21.244;2022-10-26T01:06:41;12.50;99.90
49855;DHT22;35752;52.164;21.244;2022-10-26T01:09:07;12.50;99.90
49855;DHT22;35752;52.164;21.244;2022-10-26T01:11:33;12.50;99.90
49855;DHT22;35752;52.164;21.244;2022-10-26T01:13:59;12.50;99.90
49855;DHT22;35752;52.164;21.244;2022-10-26T01:16:45;12.50;99.90
49855;DHT22;35752;52.164;21.244;2022-10-26T01:35:17;12.60;99.90
49855;DHT22;35752;52.164;21.244;2022-10-26T01:37:48;12.60;99.90
49855;DHT22;35752;52.164;21.244;2022-10-26T01:40:18;12.60;99.90
49855;DHT22;35752;52.164;21.244;2022-10-26T01:42:47;12.60;99.90
49855;DHT22;35752;52.164;21.244;2022-10-26T01:45:13;12.60;99.90
49855;DHT22;35752;52.164;21.244;2022-10-26T01:47:39;12.60;99.90
49855;DHT22;35752;52.164;21.244;2022-10-26T01:50:05;12.60;99.90
49855;DHT22;35752;52.164;21.244;2022-10-26T01:52:31;12.60;99.90
49855;DHT22;35752;52.164;21.244;2022-10-26T01:55:00;12.70;99.90
49855;DHT22;35752;52.164;21.244;2022-10-26T01:57:26;12.60;99.90
49855;DHT22;35752;52.164;21.244;2022-10-26T02:07:44;12.70;99.90
49855;DHT22;35752;52.164;21.244;2022-10-26T02:10:18;12.70;99.90
49855;DHT22;35752;52.164;21.244;2022-10-26T02:15:19;12.60;99.90
49855;DHT22;35752;52.164;21.244;2022-10-26T02:20:17;12.60;99.90
49855;DHT22;35752;52.164;21.244;2022-10-26T02:22:45;12.60;99.90
49855;DHT22;35752;52.164;21.244;2022-10-26T02:25:22;12.60;99.90
49855;DHT22;35752;52.164;21.244;2022-10-26T02:27:49;12.60;99.90
49855;DHT22;35752;52.164;21.244;2022-10-26T02:30:15;12.60;99.90
49855;DHT22;35752;52.164;21.244;2022-10-26T02:32:42;12.50;99.90
49855;DHT22;35752;52.164;21.244;2022-10-26T02:35:09;12.50;99.90
49855;DHT22;35752;52.164;21.244;2022-10-26T02:37:36;12.40;99.90
49855;DHT22;35752;52.164;21.244;2022-10-26T02:40:03;12.30;99.90
49855;DHT22;35752;52.164;21.244;2022-10-26T02:42:30;12.30;99.90
49855;DHT22;35752;52.164;21.244;2022-10-26T02:44:57;12.40;99.90
49855;DHT22;35752;52.164;21.244;2022-10-26T02:47:24;12.30;99.90
49855;DHT22;35752;52.164;21.244;2022-10-26T02:49:50;12.40;99.90
49855;DHT22;35752;52.164;21.244;2022-10-26T02:54:57;12.30;99.90
49855;DHT22;35752;52.164;21.244;2022-10-26T02:57:29;12.30;99.90
49855;DHT22;35752;52.164;21.244;2022-10-26T02:59:56;12.30;99.90
49855;DHT22;35752;52.164;21.244;2022-10-26T03:02:22;12.30;99.90
49855;DHT22;35752;52.164;21.244;2022-10-26T03:04:48;12.40;99.90
49855;DHT22;35752;52.164;21.244;2022-10-26T03:07:21;12.40;99.90
49855;DHT22;35752;52.164;21.244;2022-10-26T03:09:46;12.40;99.90
49855;DHT22;35752;52.164;21.244;2022-10-26T03:12:12;12.40;99.90
49855;DHT22;35752;52.164;21.244;2022-10-26T03:14:37;12.40;99.90
49855;DHT22;35752;52.164;21.244;2022-10-26T03:17:04;12.40;99.90
49855;DHT22;35752;52.164;21.244;2022-10-26T03:19:29;12.40;99.90
49855;DHT22;35752;52.164;21.244;2022-10-26T03:21:55;12.50;99.90
49855;DHT22;35752;52.164;21.244;2022-10-26T03:24:20;12.50;99.90
49855;DHT22;35752;52.164;21.244;2022-10-26T03:26:46;12.50;99.90
49855;DHT22;35752;52.164;21.244;2022-10-26T03:29:11;12.50;99.90
49855;DHT22;35752;52.164;21.244;2022-10-26T03:31:37;12.50;99.90
49855;DHT22;35752;52.164;21.244;2022-10-26T03:34:02;12.50;99.90
49855;DHT22;35752;52.164;21.244;2022-10-26T03:36:28;12.50;99.90
49855;DHT22;35752;52.164;21.244;2022-10-26T03:38:53;12.40;99.90
49855;DHT22;35752;52.164;21.244;2022-10-26T03:41:19;12.50;99.90
49855;DHT22;35752;52.164;21.244;2022-10-26T03:43:44;12.40;99.90
49855;DHT22;35752;52.164;21.244;2022-10-26T03:46:10;12.40;99.90
49855;DHT22;35752;52.164;21.244;2022-10-26T03:48:35;12.40;99.90
49855;DHT22;35752;52.164;21.244;2022-10-26T03:51:01;12.40;99.90
49855;DHT22;35752;52.164;21.244;2022-10-26T03:53:26;12.40;99.90
49855;DHT22;35752;52.164;21.244;2022-10-26T03:55:52;12.40;99.90
49855;DHT22;35752;52.164;21.244;2022-10-26T03:58:17;12.40;99.90
49855;DHT22;35752;52.164;21.244;2022-10-26T04:00:43;12.40;99.90
49855;DHT22;35752;52.164;21.244;2022-10-26T04:03:08;12.40;99.90
49855;DHT22;35752;52.164;21.244;2022-10-26T04:05:34;12.40;99.90
49855;DHT22;35752;52.164;21.244;2022-10-26T04:08:00;12.40;99.90
49855;DHT22;35752;52.164;21.244;2022-10-26T04:10:28;12.40;99.90
49855;DHT22;35752;52.164;21.244;2022-10-26T04:12:54;12.40;99.90
49855;DHT22;35752;52.164;21.244;2022-10-26T04:15:20;12.40;99.90
49855;DHT22;35752;52.164;21.244;2022-10-26T04:17:46;12.30;99.90
49855;DHT22;35752;52.164;21.244;2022-10-26T04:20:12;12.30;99.90
49855;DHT22;35752;52.164;21.244;2022-10-26T04:22:37;12.30;99.90
49855;DHT22;35752;52.164;21.244;2022-10-26T04:25:03;12.40;99.90
49855;DHT22;35752;52.164;21.244;2022-10-26T04:27:29;12.30;99.90
49855;DHT22;35752;52.164;21.244;2022-10-26T04:29:55;12.30;99.90
49855;DHT22;35752;52.164;21.244;2022-10-26T04:32:20;12.30;99.90
49855;DHT22;35752;52.164;21.244;2022-10-26T04:34:46;12.30;99.90
49855;DHT22;35752;52.164;21.244;2022-10-26T04:37:11;12.30;99.90
49855;DHT22;35752;52.164;21.244;2022-10-26T04:39:37;12.30;99.90
49855;DHT22;35752;52.164;21.244;2022-10-26T04:42:02;12.30;99.90
49855;DHT22;35752;52.164;21.244;2022-10-26T04:44:28;12.30;99.90
49855;DHT22;35752;52.164;21.244;2022-10-26T04:46:54;12.30;99.90
49855;DHT22;35752;52.164;21.244;2022-10-26T04:49:19;12.20;99.90
49855;DHT22;35752;52.164;21.244;2022-10-26T04:51:44;12.20;99.90
49855;DHT22;35752;52.164;21.244;2022-10-26T04:54:10;12.20;99.90
49855;DHT22;35752;52.164;21.244;2022-10-26T04:56:36;12.20;99.90
49855;DHT22;35752;52.164;21.244;2022-10-26T04:59:01;12.20;99.90
49855;DHT22;35752;52.164;21.244;2022-10-26T05:01:27;12.20;99.90
49855;DHT22;35752;52.164;21.244;2022-10-26T05:03:52;12.20;99.90
49855;DHT22;35752;52.164;21.244;2022-10-26T05:06:19;12.20;99.90
49855;DHT22;35752;52.164;21.244;2022-10-26T05:08:45;12.10;99.90
49855;DHT22;35752;52.164;21.244;2022-10-26T05:11:10;12.20;99.90
49855;DHT22;35752;52.164;21.244;2022-10-26T05:13:36;12.20;99.90
49855;DHT22;35752;52.164;21.244;2022-10-26T05:16:01;12.20;99.90
49855;DHT22;35752;52.164;21.244;2022-10-26T05:18:27;12.20;99.90
49855;DHT22;35752;52.164;21.244;2022-10-26T05:20:53;12.20;99.90
49855;DHT22;35752;52.164;21.244;2022-10-26T05:23:18;12.20;99.90
49855;DHT22;35752;52.164;21.244;2022-10-26T05:25:44;12.20;99.90
49855;DHT22;35752;52.164;21.244;2022-10-26T05:28:10;12.20;99.90
49855;DHT22;35752;52.164;21.244;2022-10-26T05:30:38;12.20;99.90
49855;DHT22;35752;52.164;21.244;2022-10-26T05:33:03;12.20;99.90
49855;DHT22;35752;52.164;21.244;2022-10-26T05:35:29;12.20;99.90
49855;DHT22;35752;52.164;21.244;2022-10-26T05:37:55;12.20;99.90
49855;DHT22;35752;52.164;21.244;2022-10-26T05:40:21;12.10;99.90
49855;DHT22;35752;52.164;21.244;2022-10-26T05:42:46;12.10;99.90
49855;DHT22;35752;52.164;21.244;2022-10-26T05:45:12;12.10;99.90
49855;DHT22;35752;52.164;21.244;2022-10-26T05:47:38;12.10;99.90
49855;DHT22;35752;52.164;21.244;2022-10-26T05:50:04;12.10;99.90
49855;DHT22;35752;52.164;21.244;2022-10-26T05:52:29;12.10;99.90
49855;DHT22;35752;52.164;21.244;2022-10-26T05:54:55;12.10;99.90
49855;DHT22;35752;52.164;21.244;2022-10-26T05:57:20;12.10;99.90
49855;DHT22;35752;52.164;21.244;2022-10-26T05:59:46;12.10;99.90
49855;DHT22;35752;52.164;21.244;2022-10-26T06:02:24;12.10;99.90
49855;DHT22;35752;52.164;21.244;2022-10-26T06:04:51;12.10;99.90
49855;DHT22;35752;52.164;21.244;2022-10-26T06:07:18;12.10;99.90
49855;DHT22;35752;52.164;21.244;2022-10-26T06:09:46;12.10;99.90
49855;DHT22;35752;52.164;21.244;2022-10-26T06:12:12;12.10;99.90
49855;DHT22;35752;52.164;21.244;2022-10-26T06:14:38;12.10;99.90
49855;DHT22;35752;52.164;21.244;2022-10-26T06:19:39;12.10;99.90
49855;DHT22;35752;52.164;21.244;2022-10-26T06:24:37;12.10;99.90
49855;DHT22;35752;52.164;21.244;2022-10-26T06:27:06;12.00;99.90
49855;DHT22;35752;52.164;21.244;2022-10-26T06:29:47;12.10;99.90
49855;DHT22;35752;52.164;21.244;2022-10-26T06:32:15;12.10;99.90
49855;DHT22;35752;52.164;21.244;2022-10-26T06:34:44;12.10;99.90
49855;DHT22;35752;52.164;21.244;2022-10-26T06:37:11;12.10;99.90
49855;DHT22;35752;52.164;21.244;2022-10-26T06:39:37;12.20;99.90
49855;DHT22;35752;52.164;21.244;2022-10-26T06:42:04;12.20;99.90
49855;DHT22;35752;52.164;21.244;2022-10-26T06:44:30;12.30;99.90
49855;DHT22;35752;52.164;21.244;2022-10-26T06:47:02;12.30;99.90
49855;DHT22;35752;52.164;21.244;2022-10-26T06:49:31;12.40;99.90
49855;DHT22;35752;52.164;21.244;2022-10-26T06:52:04;12.40;99.90
49855;DHT22;35752;52.164;21.244;2022-10-26T06:54:44;12.30;99.90
49855;DHT22;35752;52.164;21.244;2022-10-26T06:57:11;12.30;99.90
49855;DHT22;35752;52.164;21.244;2022-10-26T06:59:45;12.40;99.90
49855;DHT22;35752;52.164;21.244;2022-10-26T07:02:12;12.40;99.90
49855;DHT22;35752;52.164;21.244;2022-10-26T07:04:39;12.40;99.90
49855;DHT22;35752;52.164;21.244;2022-10-26T07:07:04;12.40;99.90
49855;DHT22;35752;52.164;21.244;2022-10-26T07:09:30;12.40;99.90
49855;DHT22;35752;52.164;21.244;2022-10-26T07:11:55;12.40;99.90
49855;DHT22;35752;52.164;21.244;2022-10-26T07:14:21;12.40;99.90
49855;DHT22;35752;52.164;21.244;2022-10-26T07:16:47;12.40;99.90
49855;DHT22;35752;52.164;21.244;2022-10-26T07:19:12;12.40;99.90
49855;DHT22;35752;52.164;21.244;2022-10-26T07:21:38;12.50;99.90
49855;DHT22;35752;52.164;21.244;2022-10-26T07:24:03;12.50;99.90
49855;DHT22;35752;52.164;21.244;2022-10-26T07:26:29;12.60;99.90
49855;DHT22;35752;52.164;21.244;2022-10-26T07:28:54;12.70;99.90
49855;DHT22;35752;52.164;21.244;2022-10-26T07:31:20;12.60;99.90
49855;DHT22;35752;52.164;21.244;2022-10-26T07:33:45;12.60;99.90
49855;DHT22;35752;52.164;21.244;2022-10-26T07:36:11;12.60;99.90
49855;DHT22;35752;52.164;21.244;2022-10-26T07:38:37;12.70;99.90
49855;DHT22;35752;52.164;21.244;2022-10-26T07:41:03;12.80;99.90
49855;DHT22;35752;52.164;21.244;2022-10-26T07:43:31;12.80;99.90
49855;DHT22;35752;52.164;21.244;2022-10-26T07:46:07;12.90;99.90
49855;DHT22;35752;52.164;21.244;2022-10-26T07:48:35;12.90;99.90
49855;DHT22;35752;52.164;21.244;2022-10-26T07:51:04;12.90;99.90
49855;DHT22;35752;52.164;21.244;2022-10-26T07:53:32;13.00;99.90
49855;DHT22;35752;52.164;21.244;2022-10-26T07:55:58;13.00;99.90
49855;DHT22;35752;52.164;21.244;2022-10-26T07:58:26;13.10;99.90
49855;DHT22;35752;52.164;21.244;2022-10-26T08:01:21;13.20;99.90
49855;DHT22;35752;52.164;21.244;2022-10-26T08:04:04;13.40;99.90
49855;DHT22;35752;52.164;21.244;2022-10-26T08:07:03;13.40;99.90
49855;DHT22;35752;52.164;21.244;2022-10-26T08:15:41;13.30;99.90
49855;DHT22;35752;52.164;21.244;2022-10-26T08:18:19;13.30;99.90
49855;DHT22;35752;52.164;21.244;2022-10-26T08:20:45;13.30;99.90
49855;DHT22;35752;52.164;21.244;2022-10-26T08:23:10;13.40;99.90
49855;DHT22;35752;52.164;21.244;2022-10-26T08:25:36;13.30;99.90
49855;DHT22;35752;52.164;21.244;2022-10-26T08:28:02;13.50;99.90
49855;DHT22;35752;52.164;21.244;2022-10-26T08:30:31;13.50;99.90
49855;DHT22;35752;52.164;21.244;2022-10-26T08:33:00;13.40;99.90
49855;DHT22;35752;52.164;21.244;2022-10-26T08:35:26;13.40;99.90
49855;DHT22;35752;52.164;21.244;2022-10-26T08:37:52;13.30;99.90
49855;DHT22;35752;52.164;21.244;2022-10-26T08:40:18;13.40;99.90
49855;DHT22;35752;52.164;21.244;2022-10-26T08:42:54;13.30;99.90
49855;DHT22;35752;52.164;21.244;2022-10-26T08:47:51;13.30;99.90
49855;DHT22;35752;52.164;21.244;2022-10-26T08:50:20;13.30;99.90
49855;DHT22;35752;52.164;21.244;2022-10-26T08:53:25;13.20;99.90
49855;DHT22;35752;52.164;21.244;2022-10-26T08:58:53;13.20;99.90
49855;DHT22;35752;52.164;21.244;2022-10-26T09:01:24;13.30;99.90
49855;DHT22;35752;52.164;21.244;2022-10-26T09:03:59;13.30;99.90
49855;DHT22;35752;52.164;21.244;2022-10-26T09:09:08;13.50;99.90
49855;DHT22;35752;52.164;21.244;2022-10-26T09:11:42;13.10;99.90
49855;DHT22;35752;52.164;21.244;2022-10-26T09:14:12;13.30;99.90
49855;DHT22;35752;52.164;21.244;2022-10-26T09:22:06;13.40;99.90
49855;DHT22;35752;52.164;21.244;2022-10-26T09:24:46;13.50;99.90
49855;DHT22;35752;52.164;21.244;2022-10-26T09:30:03;13.60;99.90
49855;DHT22;35752;52.164;21.244;2022-10-26T09:32:41;13.70;99.90
49855;DHT22;35752;52.164;21.244;2022-10-26T09:35:27;13.80;99.90
49855;DHT22;35752;52.164;21.244;2022-10-26T09:38:07;13.70;99.90
49855;DHT22;35752;52.164;21.244;2022-10-26T09:43:08;13.80;99.90
49855;DHT22;35752;52.164;21.244;2022-10-26T09:45:37;13.70;99.90
49855;DHT22;35752;52.164;21.244;2022-10-26T09:48:14;13.70;99.90
49855;DHT22;35752;52.164;21.244;2022-10-26T09:50:47;13.70;99.90
49855;DHT22;35752;52.164;21.244;2022-10-26T09:53:14;13.70;99.90
49855;DHT22;35752;52.164;21.244;2022-10-26T09:55:49;13.70;99.90
49855;DHT22;35752;52.164;21.244;2022-10-26T09:58:23;13.90;99.90
49855;DHT22;35752;52.164;21.244;2022-10-26T10:00:50;13.90;99.90
49855;DHT22;35752;52.164;21.244;2022-10-26T10:03:34;13.70;99.90
49855;DHT22;35752;52.164;21.244;2022-10-26T10:06:18;13.90;99.90
49855;DHT22;35752;52.164;21.244;2022-10-26T10:11:35;13.90;99.90
49855;DHT22;35752;52.164;21.244;2022-10-26T10:14:04;13.80;99.90
49855;DHT22;35752;52.164;21.244;2022-10-26T10:16:30;13.90;99.90
49855;DHT22;35752;52.164;21.244;2022-10-26T10:18:59;13.90;99.90
49855;DHT22;35752;52.164;21.244;2022-10-26T10:24:30;14.00;99.90
49855;DHT22;35752;52.164;21.244;2022-10-26T10:29:39;14.10;99.90
49855;DHT22;35752;52.164;21.244;2022-10-26T10:32:08;14.20;99.90
49855;DHT22;35752;52.164;21.244;2022-10-26T10:34:38;14.40;99.90
49855;DHT22;35752;52.164;21.244;2022-10-26T10:37:12;14.30;99.90
49855;DHT22;35752;52.164;21.244;2022-10-26T10:39:54;14.20;99.90
49855;DHT22;35752;52.164;21.244;2022-10-26T10:42:33;14.20;99.90
49855;DHT22;35752;52.164;21.244;2022-10-26T10:45:03;14.20;99.90
49855;DHT22;35752;52.164;21.244;2022-10-26T10:47:30;14.30;99.90
49855;DHT22;35752;52.164;21.244;2022-10-26T10:52:24;14.20;99.90
49855;DHT22;35752;52.164;21.244;2022-10-26T11:00:22;14.30;99.90
49855;DHT22;35752;52.164;21.244;2022-10-26T11:10:58;14.40;99.90
49855;DHT22;35752;52.164;21.244;2022-10-26T11:13:26;14.30;99.90
49855;DHT22;35752;52.164;21.244;2022-10-26T11:16:03;14.30;99.90
49855;DHT22;35752;52.164;21.244;2022-10-26T11:18:40;14.20;99.90
49855;DHT22;35752;52.164;21.244;2022-10-26T11:21:39;14.20;99.90
49855;DHT22;35752;52.164;21.244;2022-10-26T11:24:19;14.20;99.90
49855;DHT22;35752;52.164;21.244;2022-10-26T11:27:16;14.30;99.90
49855;DHT22;35752;52.164;21.244;2022-10-26T11:37:47;14.40;99.90
49855;DHT22;35752;52.164;21.244;2022-10-26T11:45:38;14.40;99.90
49855;DHT22;35752;52.164;21.244;2022-10-26T11:51:02;14.50;99.90
49855;DHT22;35752;52.164;21.244;2022-10-26T11:53:39;14.50;99.90
49855;DHT22;35752;52.164;21.244;2022-10-26T11:56:11;14.40;99.90
49855;DHT22;35752;52.164;21.244;2022-10-26T11:58:47;14.40;99.90
49855;DHT22;35752;52.164;21.244;2022-10-26T12:01:23;14.30;99.90
49855;DHT22;35752;52.164;21.244;2022-10-26T12:03:51;14.30;99.90
49855;DHT22;35752;52.164;21.244;2022-10-26T12:06:21;14.30;99.90
49855;DHT22;35752;52.164;21.244;2022-10-26T12:17:24;14.30;99.90
49855;DHT22;35752;52.164;21.244;2022-10-26T12:19:54;14.30;99.90
49855;DHT22;35752;52.164;21.244;2022-10-26T12:22:24;14.20;99.90
49855;DHT22;35752;52.164;21.244;2022-10-26T12:25:36;14.20;99.90
49855;DHT22;35752;52.164;21.244;2022-10-26T12:32:47;14.00;99.90
49855;DHT22;35752;52.164;21.244;2022-10-26T12:40:47;14.00;99.90
49855;DHT22;35752;52.164;21.244;2022-10-26T12:48:44;14.10;99.90
49855;DHT22;35752;52.164;21.244;2022-10-26T12:53:43;14.10;99.90
49855;DHT22;35752;52.164;21.244;2022-10-26T12:56:08;14.00;99.90
49855;DHT22;35752;52.164;21.244;2022-10-26T13:01:16;14.10;99.90
49855;DHT22;35752;52.164;21.244;2022-10-26T13:08:51;14.00;99.90
49855;DHT22;35752;52.164;21.244;2022-10-26T13:11:19;14.10;99.90
49855;DHT22;35752;52.164;21.244;2022-10-26T13:13:52;14.10;99.90
49855;DHT22;35752;52.164;21.244;2022-10-26T13:16:18;14.00;99.90
49855;DHT22;35752;52.164;21.244;2022-10-26T13:18:44;14.00;99.90
49855;DHT22;35752;52.164;21.244;2022-10-26T13:21:10;14.00;99.90
49855;DHT22;35752;52.164;21.244;2022-10-26T13:23:48;14.00;99.90
49855;DHT22;35752;52.164;21.244;2022-10-26T13:26:22;14.00;99.90
49855;DHT22;35752;52.164;21.244;2022-10-26T13:34:15;13.90;99.90
49855;DHT22;35752;52.164;21.244;2022-10-26T13:39:14;13.80;99.90
49855;DHT22;35752;52.164;21.244;2022-10-26T13:41:44;13.70;99.90
49855;DHT22;35752;52.164;21.244;2022-10-26T13:44:13;13.70;99.90
49855;DHT22;35752;52.164;21.244;2022-10-26T13:46:40;13.80;99.90
49855;DHT22;35752;52.164;21.244;2022-10-26T13:49:10;13.70;99.90
49855;DHT22;35752;52.164;21.244;2022-10-26T13:51:45;13.80;99.90
49855;DHT22;35752;52.164;21.244;2022-10-26T13:54:17;13.80;99.90
49855;DHT22;35752;52.164;21.244;2022-10-26T13:56:56;13.80;99.90
49855;DHT22;35752;52.164;21.244;2022-10-26T13:59:23;13.80;99.90
49855;DHT22;35752;52.164;21.244;2022-10-26T14:05:00;13.90;99.90
49855;DHT22;35752;52.164;21.244;2022-10-26T14:07:32;13.90;99.90
49855;DHT22;35752;52.164;21.244;2022-10-26T14:09:59;13.90;99.90
49855;DHT22;35752;52.164;21.244;2022-10-26T14:12:25;13.90;99.90
49855;DHT22;35752;52.164;21.244;2022-10-26T14:14:54;13.90;99.90
49855;DHT22;35752;52.164;21.244;2022-10-26T14:17:22;14.00;99.90
49855;DHT22;35752;52.164;21.244;2022-10-26T14:19:49;13.90;99.90
49855;DHT22;35752;52.164;21.244;2022-10-26T14:22:18;13.80;99.90
49855;DHT22;35752;52.164;21.244;2022-10-26T14:24:49;13.80;99.90
49855;DHT22;35752;52.164;21.244;2022-10-26T14:27:15;13.70;99.90
49855;DHT22;35752;52.164;21.244;2022-10-26T14:29:41;13.60;99.90
49855;DHT22;35752;52.164;21.244;2022-10-26T14:32:27;13.60;99.90
49855;DHT22;35752;52.164;21.244;2022-10-26T14:34:53;13.50;99.90
49855;DHT22;35752;52.164;21.244;2022-10-26T14:37:38;13.50;99.90
49855;DHT22;35752;52.164;21.244;2022-10-26T14:40:05;13.40;99.90
49855;DHT22;35752;52.164;21.244;2022-10-26T14:42:33;13.40;99.90
49855;DHT22;35752;52.164;21.244;2022-10-26T14:45:00;13.40;99.90
49855;DHT22;35752;52.164;21.244;2022-10-26T14:47:30;13.30;99.90
49855;DHT22;35752;52.164;21.244;2022-10-26T14:49:56;13.30;99.90
49855;DHT22;35752;52.164;21.244;2022-10-26T14:52:23;13.20;99.90
49855;DHT22;35752;52.164;21.244;2022-10-26T14:55:03;13.10;99.90
49855;DHT22;35752;52.164;21.244;2022-10-26T14:57:39;13.00;99.90
49855;DHT22;35752;52.164;21.244;2022-10-26T15:02:40;12.90;99.90
49855;DHT22;35752;52.164;21.244;2022-10-26T15:05:19;12.90;99.90
49855;DHT22;35752;52.164;21.244;2022-10-26T15:07:45;12.80;99.90
49855;DHT22;35752;52.164;21.244;2022-10-26T15:12:55;12.70;99.90
49855;DHT22;35752;52.164;21.244;2022-10-26T15:15:21;12.70;99.90
49855;DHT22;35752;52.164;21.244;2022-10-26T15:17:51;12.60;99.90
49855;DHT22;35752;52.164;21.244;2022-10-26T15:20:18;12.60;99.90
49855;DHT22;35752;52.164;21.244;2022-10-26T15:22:52;12.60;99.90
49855;DHT22;35752;52.164;21.244;2022-10-26T15:25:19;12.50;99.90
49855;DHT22;35752;52.164;21.244;2022-10-26T15:27:46;12.50;99.90
49855;DHT22;35752;52.164;21.244;2022-10-26T15:30:20;12.60;99.90
49855;DHT22;35752;52.164;21.244;2022-10-26T15:32:46;12.60;99.90
49855;DHT22;35752;52.164;21.244;2022-10-26T15:37:43;12.50;99.90
49855;DHT22;35752;52.164;21.244;2022-10-26T15:40:09;12.50;99.90
49855;DHT22;35752;52.164;21.244;2022-10-26T15:42:35;12.40;99.90
49855;DHT22;35752;52.164;21.244;2022-10-26T15:45:02;12.20;99.90
49855;DHT22;35752;52.164;21.244;2022-10-26T15:47:28;12.10;99.90
49855;DHT22;35752;52.164;21.244;2022-10-26T15:49:55;12.10;99.90
49855;DHT22;35752;52.164;21.244;2022-10-26T15:52:21;12.00;99.90
49855;DHT22;35752;52.164;21.244;2022-10-26T15:54:46;12.00;99.90
49855;DHT22;35752;52.164;21.244;2022-10-26T15:57:12;11.90;99.90
49855;DHT22;35752;52.164;21.244;2022-10-26T15:59:38;11.80;99.90
49855;DHT22;35752;52.164;21.244;2022-10-26T16:02:13;11.70;99.90
49855;DHT22;35752;52.164;21.244;2022-10-26T16:04:38;11.70;99.90
49855;DHT22;35752;52.164;21.244;2022-10-26T16:07:04;11.60;99.90
49855;DHT22;35752;52.164;21.244;2022-10-26T16:09:31;11.50;99.90
49855;DHT22;35752;52.164;21.244;2022-10-26T16:11:57;11.40;99.90
49855;DHT22;35752;52.164;21.244;2022-10-26T16:14:22;11.30;99.90
49855;DHT22;35752;52.164;21.244;2022-10-26T16:16:48;11.30;99.90
49855;DHT22;35752;52.164;21.244;2022-10-26T16:19:13;11.20;99.90
49855;DHT22;35752;52.164;21.244;2022-10-26T16:21:39;11.20;99.90
49855;DHT22;35752;52.164;21.244;2022-10-26T16:24:06;11.10;99.90
49855;DHT22;35752;52.164;21.244;2022-10-26T16:26:31;11.00;99.90
49855;DHT22;35752;52.164;21.244;2022-10-26T16:28:57;10.90;99.90
49855;DHT22;35752;52.164;21.244;2022-10-26T16:31:22;10.90;99.90
49855;DHT22;35752;52.164;21.244;2022-10-26T16:33:48;10.80;99.90
49855;DHT22;35752;52.164;21.244;2022-10-26T16:36:14;10.80;99.90
49855;DHT22;35752;52.164;21.244;2022-10-26T16:38:39;10.70;99.90
49855;DHT22;35752;52.164;21.244;2022-10-26T16:41:09;10.70;99.90
49855;DHT22;35752;52.164;21.244;2022-10-26T16:43:37;10.70;99.90
49855;DHT22;35752;52.164;21.244;2022-10-26T16:46:10;10.70;99.90
49855;DHT22;35752;52.164;21.244;2022-10-26T16:48:37;10.60;99.90
49855;DHT22;35752;52.164;21.244;2022-10-26T16:51:06;10.60;99.90
49855;DHT22;35752;52.164;21.244;2022-10-26T16:53:32;10.60;99.90
49855;DHT22;35752;52.164;21.244;2022-10-26T16:56:17;10.60;99.90
49855;DHT22;35752;52.164;21.244;2022-10-26T16:58:42;10.50;99.90
49855;DHT22;35752;52.164;21.244;2022-10-26T17:01:09;10.40;99.90
49855;DHT22;35752;52.164;21.244;2022-10-26T17:03:34;10.20;99.90
49855;DHT22;35752;52.164;21.244;2022-10-26T17:06:04;10.20;99.90
49855;DHT22;35752;52.164;21.244;2022-10-26T17:08:30;10.20;99.90
49855;DHT22;35752;52.164;21.244;2022-10-26T17:11:09;10.10;99.90
49855;DHT22;35752;52.164;21.244;2022-10-26T17:13:38;10.10;99.90
49855;DHT22;35752;52.164;21.244;2022-10-26T17:16:05;10.10;99.90
49855;DHT22;35752;52.164;21.244;2022-10-26T17:18:31;10.10;99.90
49855;DHT22;35752;52.164;21.244;2022-10-26T17:20:56;10.00;99.90
49855;DHT22;35752;52.164;21.244;2022-10-26T17:23:22;10.00;99.90
49855;DHT22;35752;52.164;21.244;2022-10-26T17:25:48;10.00;99.90
49855;DHT22;35752;52.164;21.244;2022-10-26T17:28:13;9.90;99.90
49855;DHT22;35752;52.164;21.244;2022-10-26T17:30:39;9.80;99.90
49855;DHT22;35752;52.164;21.244;2022-10-26T17:33:04;9.80;99.90
49855;DHT22;35752;52.164;21.244;2022-10-26T17:35:33;9.80;99.90
49855;DHT22;35752;52.164;21.244;2022-10-26T17:37:59;9.70;99.90
49855;DHT22;35752;52.164;21.244;2022-10-26T17:40:25;9.60;99.90
49855;DHT22;35752;52.164;21.244;2022-10-26T17:42:50;9.60;99.90
49855;DHT22;35752;52.164;21.244;2022-10-26T17:45:16;9.50;99.90
49855;DHT22;35752;52.164;21.244;2022-10-26T17:47:41;9.40;99.90
49855;DHT22;35752;52.164;21.244;2022-10-26T17:50:07;9.40;99.90
49855;DHT22;35752;52.164;21.244;2022-10-26T17:52:33;9.30;99.90
49855;DHT22;35752;52.164;21.244;2022-10-26T17:54:59;9.20;99.90
49855;DHT22;35752;52.164;21.244;2022-10-26T17:57:24;9.10;99.90
49855;DHT22;35752;52.164;21.244;2022-10-26T17:59:50;9.10;99.90
49855;DHT22;35752;52.164;21.244;2022-10-26T18:02:15;9.10;99.90
49855;DHT22;35752;52.164;21.244;2022-10-26T18:04:41;9.10;99.90